Time;durP1;ratioP1;P1;durP2;ratioP2;P2;SDS_P1;SDS_P2;PMS_P1;PMS_P2;Temp;Humidity;BMP_temperature;BMP_pressure;BME280_temperature;BME280_humidity;BME280_pressure;Samples;Min_cycle;Max_cycle;Signal;HPM_P1;HPM_P2
2022/08/07 00:01:07;;;;;;;14.10;8.80;;;;;;;25.65;63.70;99425.22;5063618;28;20040;-68
2022/08/07 00:03:33;;;;;;;13.52;9.07;;;;;;;25.68;63.44;99424.72;5064527;28;20041;-69
2022/08/07 00:05:59;;;;;;;10.80;8.75;;;;;;;25.69;63.22;99423.63;5064332;28;20037;-69
2022/08/07 00:08:24;;;;;;;13.32;9.18;;;;;;;25.63;63.26;99416.53;5064364;28;20063;-68
2022/08/07 00:10:51;;;;;;;14.15;9.40;;;;;;;25.49;64.19;99421.66;5063710;28;20044;-68
2022/08/07 00:13:18;;;;;;;11.88;8.93;;;;;;;25.34;65.15;99421.63;5061548;28;20040;-68
2022/08/07 00:15:44;;;;;;;13.68;9.38;;;;;;;25.41;64.76;99419.47;5064575;28;20033;-68
2022/08/07 00:18:09;;;;;;;12.82;9.23;;;;;;;25.34;65.34;99422.44;5063722;28;20041;-69
2022/08/07 00:20:36;;;;;;;11.82;9.15;;;;;;;25.50;64.65;99422.47;5064646;28;20218;-68
2022/08/07 00:23:02;;;;;;;15.95;9.32;;;;;;;25.29;65.40;99417.00;5064081;28;20055;-69
2022/08/07 00:25:27;;;;;;;11.35;8.70;;;;;;;25.41;65.08;99420.28;5064215;28;20341;-68
2022/08/07 00:27:53;;;;;;;14.90;8.80;;;;;;;25.17;65.87;99402.88;5063058;28;20056;-68
2022/08/07 00:30:18;;;;;;;11.68;8.85;;;;;;;25.32;65.44;99402.91;5062956;28;20037;-69
2022/08/07 00:32:48;;;;;;;12.23;8.70;;;;;;;25.35;65.93;99412.41;5064016;28;20033;-69
2022/08/07 00:35:14;;;;;;;15.05;8.70;;;;;;;25.43;65.27;99409.19;5063572;28;20041;-68
2022/08/07 00:37:40;;;;;;;18.50;9.20;;;;;;;25.41;64.93;99420.28;5061524;28;20346;-69
2022/08/07 00:40:06;;;;;;;14.93;8.98;;;;;;;25.37;64.88;99412.97;5078176;28;20043;-68
2022/08/07 00:42:32;;;;;;;17.10;8.60;;;;;;;25.37;64.77;99410.25;5062760;28;20052;-68
2022/08/07 00:44:58;;;;;;;14.48;8.13;;;;;;;25.31;64.85;99416.75;5060022;28;20032;-68
2022/08/07 00:47:24;;;;;;;12.38;8.57;;;;;;;25.21;65.48;99414.00;5064287;28;20176;-68
2022/08/07 00:49:49;;;;;;;21.67;9.73;;;;;;;25.09;65.68;99412.31;5063376;28;20323;-68
2022/08/07 00:52:15;;;;;;;11.73;9.27;;;;;;;25.00;66.34;99421.22;5064324;28;20032;-68
2022/08/07 00:54:40;;;;;;;21.38;8.60;;;;;;;24.93;66.01;99413.28;5063648;28;20091;-68
2022/08/07 00:57:06;;;;;;;17.63;8.68;;;;;;;24.83;67.26;99419.47;5059490;28;20136;-68
2022/08/07 00:59:33;;;;;;;14.40;9.52;;;;;;;24.86;67.69;99418.13;5062667;28;20352;-68
2022/08/07 01:02:01;;;;;;;13.68;9.90;;;;;;;24.71;68.60;99416.16;5062867;28;20341;-68
2022/08/07 01:04:27;;;;;;;13.95;9.75;;;;;;;24.66;68.85;99405.28;5063029;28;20036;-68
2022/08/07 01:06:52;;;;;;;16.63;10.88;;;;;;;24.56;69.26;99402.53;5063405;28;20041;-68
2022/08/07 01:09:18;;;;;;;14.70;10.38;;;;;;;24.61;69.21;99412.56;5063154;28;20159;-68
2022/08/07 01:11:43;;;;;;;16.00;11.60;;;;;;;24.68;68.76;99405.03;5058104;28;20024;-68
2022/08/07 01:14:09;;;;;;;17.50;11.20;;;;;;;24.43;69.93;99409.22;5064661;28;20040;-68
2022/08/07 01:16:35;;;;;;;13.95;11.68;;;;;;;24.42;70.03;99410.28;5062542;28;20044;-68
2022/08/07 01:19:02;;;;;;;23.48;12.30;;;;;;;24.45;70.08;99409.75;5061987;28;20361;-68
2022/08/07 01:21:27;;;;;;;16.00;11.48;;;;;;;24.38;70.47;99405.66;5063049;28;20345;-69
2022/08/07 01:23:55;;;;;;;16.50;12.35;;;;;;;24.68;69.13;99399.63;5063341;28;20041;-69
2022/08/07 01:26:22;;;;;;;16.92;11.77;;;;;;;24.60;69.32;99411.75;5062609;28;20032;-68
2022/08/07 01:28:50;;;;;;;18.13;12.18;;;;;;;24.66;69.10;99404.47;5062374;28;20029;-68
2022/08/07 01:31:17;;;;;;;15.85;11.80;;;;;;;24.65;69.02;99406.38;5061955;28;20041;-68
2022/08/07 01:33:44;;;;;;;15.60;11.85;;;;;;;24.82;68.10;99396.16;5062361;28;20140;-69
2022/08/07 01:36:10;;;;;;;15.68;11.00;;;;;;;24.64;68.85;99410.16;5061825;28;20417;-68
2022/08/07 01:38:38;;;;;;;16.08;12.32;;;;;;;24.82;68.08;99406.19;5062473;28;20377;-68
2022/08/07 01:41:08;;;;;;;20.98;12.95;;;;;;;24.62;69.11;99412.31;5055068;28;20039;-69
2022/08/07 01:43:35;;;;;;;20.55;12.15;;;;;;;24.42;70.01;99395.94;5064579;28;20037;-68
2022/08/07 01:46:01;;;;;;;19.55;13.35;;;;;;;24.26;71.11;99405.00;5065794;28;20063;-69
2022/08/07 01:48:27;;;;;;;16.38;12.57;;;;;;;24.33;71.16;99402.91;5063375;28;20212;-69
2022/08/07 01:50:57;;;;;;;20.77;12.55;;;;;;;24.28;71.48;99403.69;5064276;28;20035;-69
2022/08/07 01:53:26;;;;;;;19.10;12.85;;;;;;;24.37;71.26;99407.53;5063725;28;20103;-69
2022/08/07 01:55:57;;;;;;;18.25;12.18;;;;;;;24.25;71.66;99397.97;5063031;28;20017;-68
2022/08/07 01:58:29;;;;;;;17.00;12.48;;;;;;;24.00;72.57;99391.28;5067372;28;20041;-69
2022/08/07 02:01:01;;;;;;;20.48;12.77;;;;;;;24.02;72.90;99405.34;5062966;28;20111;-69
2022/08/07 02:03:32;;;;;;;16.75;12.85;;;;;;;23.98;72.93;99406.94;5062977;28;20041;-68
2022/08/07 02:06:07;;;;;;;20.70;12.55;;;;;;;24.04;72.58;99405.09;5062943;28;20052;-68
2022/08/07 02:08:39;;;;;;;17.67;12.32;;;;;;;23.95;72.79;99403.94;5057795;28;20108;-68
2022/08/07 02:11:07;;;;;;;20.45;12.88;;;;;;;24.05;72.63;99414.84;5062589;28;20039;-68
2022/08/07 02:13:35;;;;;;;16.80;12.40;;;;;;;23.92;72.85;99407.13;5078280;28;20257;-69
2022/08/07 02:16:03;;;;;;;16.77;12.45;;;;;;;23.92;72.94;99399.84;5068478;28;20065;-68
2022/08/07 02:18:32;;;;;;;18.83;12.20;;;;;;;23.82;73.31;99388.94;5062808;28;20037;-68
2022/08/07 02:21:00;;;;;;;16.30;12.05;;;;;;;23.75;73.51;99388.31;5062644;28;20044;-69
2022/08/07 02:23:28;;;;;;;16.42;12.57;;;;;;;23.64;74.12;99387.41;5062708;28;20351;-69
2022/08/07 02:25:55;;;;;;;17.00;12.43;;;;;;;23.66;74.30;99393.38;5062490;28;20199;-69
2022/08/07 02:28:24;;;;;;;18.88;11.75;;;;;;;23.49;74.81;99390.75;5062468;28;20033;-68
2022/08/07 02:30:51;;;;;;;15.75;12.48;;;;;;;23.63;74.25;99387.66;5062345;28;20044;-68
2022/08/07 02:33:18;;;;;;;20.17;12.40;;;;;;;23.49;75.06;99389.94;5062522;28;20044;-69
2022/08/07 02:35:47;;;;;;;24.58;13.38;;;;;;;23.67;74.10;99396.91;5061502;28;20024;-69
2022/08/07 02:38:15;;;;;;;18.75;11.93;;;;;;;23.68;74.20;99385.00;5061604;28;20037;-68
2022/08/07 02:40:43;;;;;;;16.10;12.23;;;;;;;23.82;73.50;99392.44;5060907;28;20029;-68
2022/08/07 02:43:09;;;;;;;17.55;11.85;;;;;;;23.68;74.20;99387.72;5058800;28;20048;-68
2022/08/07 02:45:37;;;;;;;17.85;12.82;;;;;;;23.68;74.16;99390.41;5056875;28;20024;-68
2022/08/07 02:48:03;;;;;;;16.50;12.82;;;;;;;23.55;74.85;99400.56;5060525;28;20035;-68
2022/08/07 02:50:30;;;;;;;19.70;12.10;;;;;;;23.68;74.36;99402.06;5060861;28;20033;-69
2022/08/07 02:53:27;;;;;;;16.42;12.43;;;;;;;23.60;74.87;99401.69;5060522;28;20326;-68
2022/08/07 02:55:55;;;;;;;17.63;12.43;;;;;;;23.40;75.40;99384.19;5040794;28;20022;-68
2022/08/07 02:58:22;;;;;;;18.42;12.57;;;;;;;23.32;76.30;99389.22;5048479;28;20108;-68
2022/08/07 03:00:54;;;;;;;17.63;13.05;;;;;;;23.22;77.18;99395.31;5063262;28;20025;-69
2022/08/07 03:03:21;;;;;;;19.17;13.85;;;;;;;23.06;77.27;99359.22;5060127;28;20041;-68
2022/08/07 03:05:50;;;;;;;17.02;12.70;;;;;;;23.12;78.11;99397.91;5060523;28;20074;-69
2022/08/07 03:08:16;;;;;;;18.80;13.57;;;;;;;23.09;78.30;99398.41;5072630;28;20075;-68
2022/08/07 03:10:44;;;;;;;23.15;13.32;;;;;;;23.10;78.20;99395.47;5061416;28;20028;-68
2022/08/07 03:13:10;;;;;;;19.25;13.45;;;;;;;23.21;78.22;99402.59;5060045;28;20037;-68
2022/08/07 03:15:36;;;;;;;18.50;13.70;;;;;;;23.30;77.63;99404.88;5060320;28;20044;-68
2022/08/07 03:18:02;;;;;;;21.35;12.45;;;;;;;23.12;78.26;99392.50;5059909;28;20033;-68
2022/08/07 03:20:27;;;;;;;17.77;13.80;;;;;;;22.90;79.70;99408.72;5061309;28;20040;-69
2022/08/07 03:22:54;;;;;;;19.08;12.65;;;;;;;22.93;79.87;99409.03;5072737;28;20025;-68
2022/08/07 03:25:22;;;;;;;16.90;12.85;;;;;;;23.08;79.69;99408.41;5060241;28;20029;-69
2022/08/07 03:27:48;;;;;;;15.25;11.77;;;;;;;22.88;79.83;99403.53;5060723;28;20257;-68
2022/08/07 03:30:14;;;;;;;19.50;11.95;;;;;;;22.93;79.37;99410.91;5059078;28;20041;-68
2022/08/07 03:32:42;;;;;;;16.15;11.93;;;;;;;22.74;80.10;99412.22;5061484;28;20374;-69
2022/08/07 03:35:13;;;;;;;19.58;11.05;;;;;;;23.03;79.07;99423.72;5059965;28;20588;-69
2022/08/07 03:37:41;;;;;;;17.55;11.57;;;;;;;23.13;78.31;99430.06;5059045;28;20033;-68
2022/08/07 03:40:08;;;;;;;15.18;11.55;;;;;;;23.08;78.64;99431.88;5059022;28;20048;-68
2022/08/07 03:42:34;;;;;;;18.88;11.55;;;;;;;23.11;78.19;99426.81;5060188;28;20029;-68
2022/08/07 03:45:01;;;;;;;13.98;10.50;;;;;;;23.20;77.84;99422.59;5061970;28;20037;-68
2022/08/07 03:47:27;;;;;;;14.32;11.50;;;;;;;23.42;76.87;99422.56;5058995;28;20025;-68
2022/08/07 03:49:55;;;;;;;14.15;11.27;;;;;;;23.39;76.97;99428.47;5060804;28;20033;-68
2022/08/07 03:52:24;;;;;;;13.18;11.02;;;;;;;23.31;77.22;99423.53;5059264;28;20404;-68
2022/08/07 03:54:50;;;;;;;14.52;10.10;;;;;;;23.60;75.88;99431.44;5058721;28;20036;-69
2022/08/07 03:57:16;;;;;;;14.40;10.77;;;;;;;23.51;76.16;99437.25;5061278;28;20051;-69
2022/08/07 03:59:42;;;;;;;18.48;11.13;;;;;;;23.78;75.06;99431.88;5055881;28;20051;-69
2022/08/07 04:02:08;;;;;;;15.82;10.68;;;;;;;23.59;75.93;99424.38;5060754;28;20112;-68
2022/08/07 04:04:34;;;;;;;14.43;10.98;;;;;;;23.63;75.95;99418.22;5059343;28;20037;-68
2022/08/07 04:07:00;;;;;;;17.23;11.18;;;;;;;23.71;75.50;99427.75;5059259;28;20029;-68
2022/08/07 04:09:26;;;;;;;13.63;10.55;;;;;;;23.75;75.55;99428.88;5061373;28;20389;-69
2022/08/07 04:11:53;;;;;;;17.42;11.20;;;;;;;23.70;75.92;99426.13;5059654;28;20041;-68
2022/08/07 04:14:19;;;;;;;15.38;10.88;;;;;;;23.80;75.38;99427.03;5058938;28;20031;-69
2022/08/07 04:16:44;;;;;;;15.18;10.65;;;;;;;23.84;75.43;99430.03;5062175;28;20230;-69
2022/08/07 04:19:10;;;;;;;14.27;11.02;;;;;;;23.74;75.56;99429.94;5059907;28;20040;-68
2022/08/07 04:21:35;;;;;;;17.92;11.40;;;;;;;23.68;75.49;99420.16;5061684;28;20041;-69
2022/08/07 04:24:02;;;;;;;17.13;12.30;;;;;;;23.54;76.58;99431.38;5064219;28;20060;-73
2022/08/07 04:26:28;;;;;;;32.08;18.70;;;;;;;23.53;77.32;99429.72;5063505;28;20037;-73
2022/08/07 04:28:53;;;;;;;21.63;16.02;;;;;;;23.59;76.74;99429.78;5063841;28;20105;-74
2022/08/07 04:31:22;;;;;;;23.67;14.15;;;;;;;23.80;75.80;99439.75;5063383;28;20049;-73
2022/08/07 04:33:48;;;;;;;19.88;12.95;;;;;;;24.04;74.69;99430.25;5063027;28;20032;-73
2022/08/07 04:36:14;;;;;;;21.65;12.52;;;;;;;23.93;75.01;99436.66;5063123;28;20017;-73
2022/08/07 04:38:39;;;;;;;15.73;10.75;;;;;;;23.68;76.36;99431.78;5062739;28;20029;-73
2022/08/07 04:41:05;;;;;;;20.75;13.10;;;;;;;23.78;76.08;99429.19;5063294;28;20033;-73
2022/08/07 04:43:36;;;;;;;21.65;13.52;;;;;;;23.82;76.16;99433.00;5063721;28;20068;-73
2022/08/07 04:46:05;;;;;;;21.25;14.07;;;;;;;23.87;75.54;99405.19;5063481;28;20029;-73
2022/08/07 04:48:52;;;;;;;24.13;13.23;;;;;;;24.01;75.58;99438.06;5064663;28;20032;-73
2022/08/07 04:51:21;;;;;;;18.45;14.70;;;;;;;24.03;75.40;99444.03;5062070;28;20522;-73
2022/08/07 04:54:05;;;;;;;32.45;18.92;;;;;;;24.23;74.23;99451.50;5063018;28;20100;-73
2022/08/07 04:56:52;;;;;;;17.90;12.50;;;;;;;24.13;74.79;99453.06;5063419;28;20028;-73
2022/08/07 04:59:29;;;;;;;15.80;11.55;;;;;;;24.30;73.96;99449.44;5073999;28;20103;-73
2022/08/07 05:02:31;;;;;;;18.70;13.20;;;;;;;24.38;73.44;99454.38;5058456;28;20025;-73
2022/08/07 05:05:08;;;;;;;16.73;11.65;;;;;;;24.46;73.18;99464.72;5031200;28;20052;-73
2022/08/07 05:07:51;;;;;;;16.52;12.55;;;;;;;24.47;72.96;99463.63;5060030;28;20102;-73
2022/08/07 05:10:40;;;;;;;23.52;12.63;;;;;;;24.63;72.16;99465.38;5058021;28;20035;-74
2022/08/07 05:13:13;;;;;;;19.98;12.52;;;;;;;24.69;72.28;99469.75;5059357;28;20028;-73
2022/08/07 05:15:42;;;;;;;13.02;10.02;;;;;;;24.98;71.17;99466.72;5060343;28;20021;-71
2022/08/07 05:18:22;;;;;;;20.38;14.20;;;;;;;25.06;70.34;99471.63;5063653;28;20068;-72
2022/08/07 05:20:53;;;;;;;21.23;15.55;;;;;;;24.97;70.25;99474.03;5058980;28;20029;-73
2022/08/07 05:23:24;;;;;;;21.90;14.57;;;;;;;24.90;70.63;99475.28;5063110;28;20029;-73
2022/08/07 05:25:51;;;;;;;18.75;12.15;;;;;;;25.03;68.74;99470.28;5057883;28;20029;-73
2022/08/07 05:28:18;;;;;;;25.83;17.23;;;;;;;25.02;69.67;99481.38;5063266;28;20314;-73
2022/08/07 05:30:45;;;;;;;17.70;11.35;;;;;;;25.10;69.24;99480.88;5062145;28;20025;-73
2022/08/07 05:33:13;;;;;;;19.05;12.50;;;;;;;25.10;68.33;99481.69;5056562;28;20106;-73
2022/08/07 05:35:41;;;;;;;29.33;21.02;;;;;;;25.09;68.07;99487.38;5063332;28;20099;-71
2022/08/07 05:38:07;;;;;;;14.32;11.73;;;;;;;25.07;68.05;99482.22;5062422;28;20105;-73
2022/08/07 05:40:37;;;;;;;18.10;11.30;;;;;;;25.11;68.06;99482.50;5074929;28;20052;-73
2022/08/07 05:43:03;;;;;;;14.98;11.77;;;;;;;25.29;67.81;99487.47;5062719;28;20079;-74
2022/08/07 05:45:30;;;;;;;15.57;11.75;;;;;;;25.45;66.82;99477.50;5063121;28;20057;-72
2022/08/07 05:47:57;;;;;;;17.95;11.30;;;;;;;25.57;66.41;99479.97;5061659;28;20096;-71
2022/08/07 05:50:23;;;;;;;18.02;10.73;;;;;;;25.72;66.61;99485.47;5061835;28;20036;-72
2022/08/07 05:52:49;;;;;;;19.17;13.82;;;;;;;25.75;66.16;99485.75;5060955;28;20041;-73
2022/08/07 05:55:15;;;;;;;13.38;9.45;;;;;;;25.79;65.37;99486.03;5062411;28;20043;-74
2022/08/07 05:57:42;;;;;;;13.57;9.38;;;;;;;26.37;63.62;99483.97;5062411;28;20029;-73
2022/08/07 06:00:09;;;;;;;11.95;8.95;;;;;;;26.94;61.70;99490.97;5062139;28;20087;-71
2022/08/07 06:02:38;;;;;;;11.48;8.45;;;;;;;27.12;60.15;99495.88;5061745;28;20053;-72
2022/08/07 06:05:09;;;;;;;11.02;7.97;;;;;;;27.50;59.58;99499.78;5061517;28;20071;-72
2022/08/07 06:07:34;;;;;;;11.90;8.82;;;;;;;27.54;59.17;99494.59;5060839;28;20033;-72
2022/08/07 06:10:01;;;;;;;9.85;8.38;;;;;;;27.75;58.08;99498.06;5061740;28;20278;-71
2022/08/07 06:12:28;;;;;;;13.85;8.35;;;;;;;27.74;58.05;99496.44;5062104;28;20037;-72
2022/08/07 06:14:54;;;;;;;9.65;7.88;;;;;;;28.03;57.65;99501.97;5061819;28;20104;-72
2022/08/07 06:17:20;;;;;;;14.18;8.32;;;;;;;28.37;55.76;99494.69;5061619;28;20088;-72
2022/08/07 06:19:47;;;;;;;12.48;8.68;;;;;;;28.68;54.84;99499.88;5060891;28;20075;-72
2022/08/07 06:22:15;;;;;;;12.93;7.70;;;;;;;29.06;53.26;99498.16;5062683;28;20052;-71
2022/08/07 06:24:40;;;;;;;12.25;7.07;;;;;;;29.22;52.36;99505.09;5061068;28;20051;-74
2022/08/07 06:27:06;;;;;;;11.90;7.35;;;;;;;29.54;52.45;99493.53;5061388;28;20315;-72
2022/08/07 06:29:33;;;;;;;12.02;7.95;;;;;;;29.65;51.72;99489.56;5061256;28;20033;-72
2022/08/07 06:31:59;;;;;;;13.20;8.10;;;;;;;29.73;50.55;99488.09;5060697;28;20301;-72
2022/08/07 06:34:26;;;;;;;11.35;7.65;;;;;;;29.84;50.31;99495.84;5063428;28;20040;-71
2022/08/07 06:36:51;;;;;;;12.73;8.07;;;;;;;30.01;49.86;99489.06;5061158;28;20082;-72
2022/08/07 06:39:17;;;;;;;12.55;8.57;;;;;;;29.91;50.21;99490.00;5060218;28;20036;-72
2022/08/07 06:41:48;;;;;;;14.63;9.15;;;;;;;29.78;49.49;99486.09;5060473;28;20032;-72
2022/08/07 06:44:15;;;;;;;12.77;8.02;;;;;;;30.16;48.57;99497.03;5060520;28;20060;-72
2022/08/07 06:46:41;;;;;;;10.85;7.95;;;;;;;30.59;48.01;99496.94;5060480;28;20044;-72
2022/08/07 06:49:07;;;;;;;11.07;8.35;;;;;;;30.95;46.10;99494.34;5061714;28;20036;-72
2022/08/07 06:51:34;;;;;;;11.65;7.72;;;;;;;31.06;45.75;99504.00;5061317;28;20041;-72
2022/08/07 06:54:02;;;;;;;8.70;7.57;;;;;;;31.43;44.71;99494.81;5060647;28;20036;-72
2022/08/07 06:56:39;;;;;;;15.15;7.43;;;;;;;31.36;44.03;99499.91;5062107;28;20409;-72
2022/08/07 06:59:20;;;;;;;23.83;7.07;;;;;;;31.82;43.39;99491.53;5059614;28;20282;-72
2022/08/07 07:01:48;;;;;;;12.60;10.80;;;;;;;31.65;43.81;99485.88;5073556;28;20021;-72
2022/08/07 07:04:14;;;;;;;13.55;9.63;;;;;;;31.67;43.52;99498.13;5061540;28;20033;-72
2022/08/07 07:06:39;;;;;;;11.40;8.82;;;;;;;31.78;43.28;99490.53;5060841;28;20098;-72
2022/08/07 07:09:24;;;;;;;17.30;10.30;;;;;;;31.93;42.56;99495.66;5059676;28;20253;-72
2022/08/07 07:12:13;;;;;;;14.05;11.23;;;;;;;31.99;42.30;99488.13;5060923;28;20029;-72
2022/08/07 07:14:48;;;;;;;13.55;7.60;;;;;;;32.50;41.09;99501.47;5061847;28;20033;-72
2022/08/07 07:17:38;;;;;;;10.85;8.57;;;;;;;32.73;40.33;99502.22;5060339;28;20878;-72
2022/08/07 07:20:36;;;;;;;8.55;7.65;;;;;;;32.89;39.47;99503.47;5060484;28;20323;-72
2022/08/07 07:23:04;;;;;;;12.02;7.47;;;;;;;33.45;38.13;99499.22;5054841;28;20350;-72
2022/08/07 07:25:29;;;;;;;9.23;7.40;;;;;;;33.56;38.08;99497.78;5060712;28;20033;-72
2022/08/07 07:28:17;;;;;;;9.93;7.80;;;;;;;33.72;37.39;99495.38;5060672;28;20040;-72
2022/08/07 07:30:52;;;;;;;9.90;6.82;;;;;;;33.35;37.50;99498.69;5060458;28;20052;-72
2022/08/07 07:36:55;;;;;;;8.50;6.45;;;;;;;33.78;34.80;99499.59;5083129;28;20090;-72
2022/08/07 07:39:25;;;;;;;7.80;6.70;;;;;;;33.27;35.77;99494.75;5086364;28;20070;-73
2022/08/07 07:41:50;;;;;;;8.13;6.78;;;;;;;32.50;37.97;99498.72;5081358;28;20044;-73
2022/08/07 07:44:19;;;;;;;11.73;6.93;;;;;;;31.85;39.58;99501.06;5086890;28;20032;-74
2022/08/07 07:46:47;;;;;;;9.13;6.15;;;;;;;31.80;39.24;99499.25;5081661;28;20040;-74
2022/08/07 07:49:16;;;;;;;9.20;6.40;;;;;;;31.99;38.53;99502.63;5081379;28;20037;-74
2022/08/07 07:51:44;;;;;;;9.65;6.47;;;;;;;32.34;37.67;99501.03;5083654;28;20036;-74
2022/08/07 07:54:13;;;;;;;8.65;6.57;;;;;;;33.00;36.33;99499.34;5081707;28;20047;-74
2022/08/07 07:56:40;;;;;;;9.40;6.85;;;;;;;33.29;35.49;99500.72;5078045;28;20050;-72
2022/08/07 07:59:08;;;;;;;8.88;6.88;;;;;;;33.49;35.18;99496.63;5079140;28;20387;-72
2022/08/07 08:01:41;;;;;;;8.70;6.75;;;;;;;33.57;35.01;99504.09;5085120;28;20029;-72
2022/08/07 08:04:07;;;;;;;9.52;7.53;;;;;;;33.22;34.76;99494.88;5079681;28;20096;-72
2022/08/07 08:06:34;;;;;;;9.93;7.15;;;;;;;33.54;33.93;99499.22;5085237;28;20043;-73
2022/08/07 08:09:04;;;;;;;13.02;7.35;;;;;;;33.16;35.52;99494.22;5088499;28;20024;-74
2022/08/07 08:11:31;;;;;;;10.02;7.07;;;;;;;33.41;33.72;99489.19;5085011;28;20025;-74
2022/08/07 08:13:56;;;;;;;8.38;6.35;;;;;;;33.50;34.14;99501.81;5085158;28;20321;-73
2022/08/07 08:16:38;;;;;;;8.65;6.20;;;;;;;33.59;32.81;99491.66;5085305;28;20171;-72
2022/08/07 08:19:07;;;;;;;9.10;6.32;;;;;;;33.50;32.97;99498.25;5085273;28;20059;-74
2022/08/07 08:27:07;;;;;;;6.40;5.75;;;;;;;33.27;33.50;99492.00;5085176;28;20054;-74
2022/08/07 08:30:01;;;;;;;8.25;5.90;;;;;;;33.39;33.17;99481.28;5083136;28;20089;-73
2022/08/07 08:32:28;;;;;;;11.85;5.75;;;;;;;33.61;32.38;99486.66;5080242;28;20214;-73
2022/08/07 08:34:57;;;;;;;8.52;6.40;;;;;;;33.04;33.91;99471.28;5082980;28;20056;-73
2022/08/07 08:37:25;;;;;;;7.80;6.30;;;;;;;33.13;33.10;99480.34;5083287;28;20032;-74
2022/08/07 08:39:53;;;;;;;26.00;7.50;;;;;;;33.00;33.53;99485.63;5079257;28;20036;-73
2022/08/07 08:42:29;;;;;;;6.15;5.05;;;;;;;33.30;32.55;99485.94;5081966;28;20122;-74
2022/08/07 08:45:04;;;;;;;7.18;5.43;;;;;;;33.40;32.12;99479.34;5081940;28;20032;-73
2022/08/07 08:47:43;;;;;;;6.65;5.20;;;;;;;33.59;31.12;99479.88;5081934;28;20028;-73
2022/08/07 08:50:19;;;;;;;7.25;5.47;;;;;;;33.63;31.45;99467.09;5078455;28;20040;-74
2022/08/07 08:53:09;;;;;;;6.78;5.30;;;;;;;33.40;31.50;99482.09;5080919;28;20033;-73
2022/08/07 08:55:45;;;;;;;6.60;4.90;;;;;;;33.04;31.86;99477.56;5082959;28;20030;-74
2022/08/07 08:58:25;;;;;;;6.07;4.70;;;;;;;32.71;32.52;99474.31;5083332;28;20033;-74
2022/08/07 09:00:57;;;;;;;7.05;5.07;;;;;;;32.63;32.56;99470.41;5081123;28;20020;-73
2022/08/07 09:03:43;;;;;;;5.53;4.63;;;;;;;33.14;32.92;99462.75;5082157;28;20040;-73
2022/08/07 09:06:16;;;;;;;7.97;4.65;;;;;;;33.25;32.02;99459.38;5080370;28;20031;-74
2022/08/07 09:09:14;;;;;;;;;;;;;;;33.10;32.25;99459.03;5082273;28;20329;-72
2022/08/07 09:11:52;;;;;;;8.77;4.97;;;;;;;33.26;31.49;99465.69;5047896;28;20144;-73
2022/08/07 09:14:37;;;;;;;7.05;4.78;;;;;;;33.21;32.68;99463.91;5078550;28;20343;-73
2022/08/07 09:17:12;;;;;;;6.45;4.40;;;;;;;33.12;31.76;99462.25;5080654;28;20147;-73
2022/08/07 09:19:59;;;;;;;6.65;5.10;;;;;;;33.08;31.54;99461.28;5083019;28;20062;-74
2022/08/07 09:22:36;;;;;;;11.02;4.40;;;;;;;33.42;30.57;99458.69;5081799;28;20044;-74
2022/08/07 09:25:14;;;;;;;7.95;4.55;;;;;;;33.11;30.17;99477.91;5082893;28;20036;-74
2022/08/07 09:28:02;;;;;;;8.98;3.90;;;;;;;32.62;30.78;99454.28;5080573;28;20021;-73
2022/08/07 09:30:43;;;;;;;5.55;3.92;;;;;;;32.40;31.23;99449.66;5082055;28;20025;-73
2022/08/07 09:33:35;;;;;;;6.18;4.03;;;;;;;32.31;32.00;99455.06;5079800;28;20042;-74
2022/08/07 09:36:10;;;;;;;35.90;6.03;;;;;;;32.25;31.90;99461.81;5083340;28;20126;-73
2022/08/07 09:38:58;;;;;;;5.78;4.13;;;;;;;32.19;32.17;99456.69;5080437;28;20041;-73
2022/08/07 09:41:43;;;;;;;10.80;4.40;;;;;;;31.97;32.54;99443.81;5083636;28;20054;-74
2022/08/07 09:44:49;;;;;;;7.55;3.97;;;;;;;32.02;32.37;99440.97;5078151;28;20318;-74
2022/08/07 09:48:02;;;;;;;4.30;3.85;;;;;;;32.07;31.64;99441.63;5078094;28;20040;-74
2022/08/07 09:50:57;;;;;;;6.00;4.22;;;;;;;32.31;32.19;99438.63;5080078;28;20085;-73
2022/08/07 09:53:26;;;;;;;5.10;4.45;;;;;;;32.33;31.02;99438.31;5078471;28;20055;-73
2022/08/07 09:56:14;;;;;;;5.95;4.38;;;;;;;32.47;31.04;99433.56;5082882;28;20095;-74
2022/08/07 09:59:17;;;;;;;7.97;4.35;;;;;;;32.62;30.55;99424.13;5078358;28;20287;-73
2022/08/07 10:02:16;;;;;;;4.72;4.18;;;;;;;32.82;30.59;99429.09;5077607;28;20036;-73
2022/08/07 10:04:54;;;;;;;6.18;3.55;;;;;;;32.76;30.94;99424.03;5063622;28;20048;-73
2022/08/07 10:07:41;;;;;;;3.95;3.40;;;;;;;32.74;30.64;99438.06;5081148;28;20083;-73
2022/08/07 10:10:28;;;;;;;4.32;3.90;;;;;;;32.42;30.22;99419.19;5082496;28;20052;-74
2022/08/07 10:13:02;;;;;;;4.80;3.58;;;;;;;32.32;30.06;99418.34;5077957;28;20028;-73
2022/08/07 10:15:49;;;;;;;5.75;3.70;;;;;;;32.16;29.58;99410.75;5081963;28;20226;-73
2022/08/07 10:19:05;;;;;;;6.57;3.67;;;;;;;32.31;31.70;99411.25;5081719;28;20043;-73
2022/08/07 10:22:04;;;;;;;5.13;4.13;;;;;;;32.58;31.26;99409.44;5076203;28;20044;-73
2022/08/07 10:24:44;;;;;;;8.52;3.78;;;;;;;32.73;28.75;99402.72;5081168;28;20074;-74
2022/08/07 10:27:57;;;;;;;5.07;3.47;;;;;;;32.85;28.85;99417.47;5080232;28;20024;-73
2022/08/07 10:30:42;;;;;;;4.80;3.38;;;;;;;32.75;29.11;99400.47;5074112;28;20103;-74
2022/08/07 10:33:26;;;;;;;5.05;3.20;;;;;;;33.00;28.46;99405.25;5080048;28;20051;-73
2022/08/07 10:36:17;;;;;;;4.97;3.38;;;;;;;33.09;28.51;99400.59;5076121;28;20037;-73
2022/08/07 10:39:08;;;;;;;4.63;3.35;;;;;;;32.92;29.09;99408.78;5079575;28;20033;-74
2022/08/07 10:41:45;;;;;;;7.45;3.55;;;;;;;32.92;28.25;99404.13;5079416;28;20107;-73
2022/08/07 10:44:25;;;;;;;19.70;3.60;;;;;;;33.11;28.37;99392.06;5078897;28;20044;-73
2022/08/07 10:47:39;;;;;;;6.93;3.40;;;;;;;33.12;27.38;99394.50;5079629;28;20025;-74
2022/08/07 10:50:13;;;;;;;6.00;2.88;;;;;;;32.95;27.25;99392.50;5074158;28;20049;-73
2022/08/07 10:52:54;;;;;;;3.80;3.40;;;;;;;32.97;28.19;99406.72;5078320;28;20411;-73
2022/08/07 10:55:52;;;;;;;3.75;3.35;;;;;;;32.95;27.96;99397.19;5080571;28;20099;-74
2022/08/07 10:58:38;;;;;;;5.28;3.20;;;;;;;32.91;28.78;99391.53;5077887;28;20117;-74
2022/08/07 11:01:38;;;;;;;7.93;3.33;;;;;;;33.07;28.17;99391.09;5074465;28;20340;-73
2022/08/07 11:04:14;;;;;;;3.45;3.10;;;;;;;33.04;27.14;99381.56;5077994;28;20032;-73
2022/08/07 11:06:51;;;;;;;6.32;3.15;;;;;;;33.09;27.37;99380.59;5078038;28;20044;-73
2022/08/07 11:09:28;;;;;;;3.55;3.22;;;;;;;33.13;27.96;99387.88;5076621;28;20336;-73
2022/08/07 11:12:03;;;;;;;4.20;3.05;;;;;;;33.24;27.14;99389.19;5077117;28;20033;-74
2022/08/07 11:14:38;;;;;;;4.32;3.25;;;;;;;33.20;27.12;99388.22;5080459;28;20040;-73
2022/08/07 11:17:06;;;;;;;4.05;3.40;;;;;;;33.07;26.81;99386.41;5080538;28;20120;-74
2022/08/07 11:19:52;;;;;;;4.60;2.80;;;;;;;33.05;27.70;99385.91;5076836;28;20333;-73
2022/08/07 11:22:39;;;;;;;7.72;3.20;;;;;;;33.00;26.22;99372.34;5080492;28;20385;-74
2022/08/07 11:25:05;;;;;;;5.53;3.30;;;;;;;33.07;26.63;99369.13;5078896;28;20028;-73
2022/08/07 11:27:40;;;;;;;5.90;3.50;;;;;;;33.18;26.22;99367.72;5078057;28;20043;-74
2022/08/07 11:30:10;;;;;;;5.47;3.22;;;;;;;33.33;27.25;99353.56;5073862;28;20040;-73
2022/08/07 11:32:42;;;;;;;6.63;3.10;;;;;;;33.64;26.14;99365.19;5080675;28;20289;-74
2022/08/07 11:35:14;;;;;;;5.15;3.33;;;;;;;33.58;25.94;99355.53;5080041;28;20051;-73
2022/08/07 11:38:12;;;;;;;3.70;3.22;;;;;;;33.67;25.27;99350.03;5078179;28;20081;-74
2022/08/07 11:41:10;;;;;;;7.03;4.00;;;;;;;33.63;25.73;99360.84;5076010;28;20329;-74
2022/08/07 11:43:49;;;;;;;6.75;3.65;;;;;;;33.44;25.76;99354.06;5080569;28;20036;-74
2022/08/07 11:46:27;;;;;;;7.30;4.28;;;;;;;33.42;26.16;99356.31;5080160;28;20100;-74
2022/08/07 11:49:14;;;;;;;4.80;4.00;;;;;;;33.30;26.75;99348.75;5080723;28;20330;-73
2022/08/07 11:52:08;;;;;;;6.20;4.47;;;;;;;33.46;26.83;99352.63;5080380;28;20089;-73
2022/08/07 11:55:08;;;;;;;6.75;5.13;;;;;;;33.39;26.63;99348.75;5080938;28;20032;-73
2022/08/07 11:57:58;;;;;;;4.50;3.92;;;;;;;33.23;26.87;99359.31;5081556;28;20065;-73
2022/08/07 12:00:48;;;;;;;6.65;4.25;;;;;;;33.10;27.38;99368.50;5080009;28;20081;-73